To NAV CANADA Home Page Login to a new session Search on AWWS site Feedback and Comments Disclaimer Vers la page française équivalente Tips FAQ What's new on the site To the Forecasts and Observations / NOTAM section To "File a Flight Plan" website Publications and other links Update of the User's profile FIC Telephone Numbers My Weather Data Folder Route Weather Data Regional Weather Data Local Weather Data To the Forecasts and Observations / NOTAM section
Request Generated 02/23/2017 at 20:47:45 UTC . Weather information available at that time is displayed.

METAR/TAF

If you find any discrepancies between the coded METAR/TAF and the plain language METAR/TAF please use the coded METAR/TAF. LWIS bulletins are not decoded in plain language.

VANCOUVER INTL/BC    (show WxCam)

METAR CYVR 232000Z 28010KT 30SM FEW016 FEW037 FEW051 05/00 A3027 RMK CF1CU1SC1 CF TR TCU ASOCT SLP250=
METAR
LOCATION
CYVR - VANCOUVER INTL/BC
DATE - TIME
23 FEBRUARY 2017 - 2000 UTC
WIND
280 TRUE @ 10  KNOTS
VISIBILITY
30 STAT.  MILES
RUNWAY VISUAL RANGE
WEATHER
CLOUDINESS
FEW CLOUDS (1/8 - 2/8) 1600  FT
FEW CLOUDS (1/8 - 2/8) 3700  FT
FEW CLOUDS (1/8 - 2/8) 5100  FT
TEMP / DEWPOINT
5 C / 0 C
ALTIMETER
30.27 IN HG
RECENT WEATHER
WIND SHEAR

METAR CYVR 231900Z 29010KT 30SM FEW035TCU BKN050 04/M01 A3027 RMK TCU1SC5 SLP252=
METAR
LOCATION
CYVR - VANCOUVER INTL/BC
DATE - TIME
23 FEBRUARY 2017 - 1900 UTC
WIND
290 TRUE @ 10  KNOTS
VISIBILITY
30 STAT.  MILES
RUNWAY VISUAL RANGE
WEATHER
CLOUDINESS
FEW CLOUDS (1/8 - 2/8) 3500  FT
TOWERING CUMULUS
BROKEN CLOUDS (5/8 - 7/8) 5000  FT
TEMP / DEWPOINT
4 C / -1 C
ALTIMETER
30.27 IN HG
RECENT WEATHER
WIND SHEAR

METAR CYVR 231800Z VRB02KT 30SM FEW035 BKN051 BKN060 05/M00 A3027 RMK CU1SC4SC1 SLP251=
METAR
LOCATION
CYVR - VANCOUVER INTL/BC
DATE - TIME
23 FEBRUARY 2017 - 1800 UTC
WIND
VRB @ 2  KNOTS
VISIBILITY
30 STAT.  MILES
RUNWAY VISUAL RANGE
WEATHER
CLOUDINESS
FEW CLOUDS (1/8 - 2/8) 3500  FT
BROKEN CLOUDS (5/8 - 7/8) 5100  FT
BROKEN CLOUDS (5/8 - 7/8) 6000  FT
TEMP / DEWPOINT
5 C / 0 C
ALTIMETER
30.27 IN HG
RECENT WEATHER
WIND SHEAR

TAF CYVR 232038Z 2321/2424 28010KT P6SM SCT050 TEMPO 2321/2403 FEW020 BKN050 FM240300 14005KT P6SM SCT020 BKN050 TEMPO 2403/2408 P6SM -SHRA FM240800 08008KT P6SM -SHRA SCT020 OVC050 TEMPO 2408/2415 2SM -SHRASN BR OVC020 FM241500 08010KT P6SM SCT050 BKN150 RMK NXT FCST BY 240000Z=
TAF
LOCATION

CYVR - VANCOUVER INTL/BC
VALIDITY [UTC]
23 FEB - 2038 to
25 FEB - 0000
 
TIMES
[UTC]
WIND
[DEGREES TRUE]
VISIBILITY
[STAT. MILES]
WEATHER
CLOUDINESS
[FEET AGL]
 
23 FEB - 2100 to
24 FEB - 0300
280 @ 10 KNOTS
6+
NIL
5000 SCATTERED
TEMPORARY CHANGES
23 FEB - 2100 to
24 FEB - 0300
 
 
 
2000 FEW
5000 BROKEN
 
24 FEB - 0300 to
24 FEB - 0800
140 @ 5 KNOTS
6+
NIL
2000 SCATTERED
5000 BROKEN
TEMPORARY CHANGES
24 FEB - 0300 to
24 FEB - 0800
 
6+
LIGHT RAIN SHOWER
 
 
24 FEB - 0800 to
24 FEB - 1500
80 @ 8 KNOTS
6+
LIGHT RAIN SHOWER
2000 SCATTERED
5000 OVERCAST
TEMPORARY CHANGES
24 FEB - 0800 to
24 FEB - 1500
 
2
LIGHT RAIN SHOWER
LIGHT SNOW SHOWER
MIST
2000 OVERCAST
 
24 FEB - 1500 to
25 FEB - 0000
80 @ 10 KNOTS
6+
NIL
5000 SCATTERED
15000 BROKEN
REMARKS
THE NEXT FORECAST WILL BE ISSUED BY 0000 UTC ON DAY 24


Your time UTC time
Weather data provided by Environment Canada and NAV CANADA